createdAt,value
2022-12-03T00:00:16.670Z,10.66
2022-12-03T00:02:45.135Z,10.64
2022-12-03T00:05:13.631Z,10.60
2022-12-03T00:07:42.081Z,10.56
2022-12-03T00:10:10.919Z,10.54
2022-12-03T00:12:39.412Z,10.51
2022-12-03T00:15:08.745Z,10.51
2022-12-03T00:17:37.235Z,10.51
2022-12-03T00:20:07.715Z,10.49
2022-12-03T00:22:36.059Z,10.45
2022-12-03T00:25:04.497Z,10.40
2022-12-03T00:27:32.832Z,10.36
2022-12-03T00:30:01.155Z,10.34
2022-12-03T00:32:29.439Z,10.28
2022-12-03T00:34:57.775Z,10.21
2022-12-03T00:37:26.115Z,10.14
2022-12-03T00:39:54.395Z,10.08
2022-12-03T00:42:22.878Z,10.00
2022-12-03T00:44:51.551Z,9.94
2022-12-03T00:47:20.199Z,9.86
2022-12-03T00:49:48.741Z,9.81
2022-12-03T00:52:17.261Z,9.74
2022-12-03T00:54:45.754Z,9.70
2022-12-03T00:57:14.011Z,9.64
2022-12-03T00:59:42.518Z,9.57
2022-12-03T01:02:11.129Z,9.49
2022-12-03T01:04:39.720Z,9.44
2022-12-03T01:07:08.250Z,9.40
2022-12-03T01:09:36.629Z,9.34
2022-12-03T01:12:05.789Z,9.27
2022-12-03T01:14:34.154Z,9.20
2022-12-03T01:17:02.580Z,9.15
2022-12-03T01:19:31.039Z,9.11
2022-12-03T01:21:59.389Z,9.09
2022-12-03T01:24:27.893Z,9.05
2022-12-03T01:26:57.635Z,8.99
2022-12-03T01:29:26.539Z,8.92
2022-12-03T01:32:13.140Z,8.87
2022-12-03T01:34:41.880Z,8.82
2022-12-03T01:37:10.379Z,8.78
2022-12-03T01:39:38.709Z,8.74
2022-12-03T01:42:08.323Z,8.71
2022-12-03T01:44:40.909Z,8.67
2022-12-03T01:47:15.243Z,8.65
2022-12-03T01:49:55.070Z,8.65
2022-12-03T01:52:28.941Z,8.64
2022-12-03T01:55:01.480Z,8.62
2022-12-03T01:57:36.983Z,8.56
2022-12-03T02:00:06.182Z,8.49
2022-12-03T02:02:34.956Z,8.44
2022-12-03T02:05:15.694Z,8.42
2022-12-03T02:07:44.006Z,8.40
2022-12-03T02:10:15.203Z,8.37
2022-12-03T02:12:58.379Z,8.39
2022-12-03T02:15:27.252Z,8.39
2022-12-03T02:17:56.679Z,8.38
2022-12-03T02:20:25.155Z,8.34
2022-12-03T02:23:14.835Z,8.28
2022-12-03T02:25:43.557Z,8.25
2022-12-03T02:28:12.466Z,8.21
2022-12-03T02:30:40.833Z,8.18
2022-12-03T02:33:09.276Z,8.15
2022-12-03T02:35:39.700Z,8.15
2022-12-03T02:38:16.675Z,8.12
2022-12-03T02:40:48.187Z,8.09
2022-12-03T02:43:19.363Z,8.05
2022-12-03T02:45:52.669Z,7.99
2022-12-03T02:48:34.879Z,7.94
2022-12-03T02:51:07.499Z,7.88
2022-12-03T02:53:48.195Z,7.83
2022-12-03T02:56:20.960Z,7.82
2022-12-03T02:58:54.260Z,7.79
2022-12-03T03:01:22.648Z,7.74
2022-12-03T03:03:52.670Z,7.70
2022-12-03T03:06:22.268Z,7.65
2022-12-03T03:08:50.662Z,7.61
2022-12-03T03:11:19.059Z,7.60
2022-12-03T03:13:47.999Z,7.55
2022-12-03T03:16:16.367Z,7.52
2022-12-03T03:18:44.879Z,7.48
2022-12-03T03:21:14.538Z,7.48
2022-12-03T03:23:42.910Z,7.48
2022-12-03T03:26:13.961Z,7.47
2022-12-03T03:28:47.839Z,7.47
2022-12-03T03:31:19.589Z,7.44
2022-12-03T03:33:49.794Z,7.43
2022-12-03T03:36:18.594Z,7.38
2022-12-03T03:38:47.660Z,7.36
2022-12-03T03:41:17.738Z,7.33
2022-12-03T03:43:47.215Z,7.32
2022-12-03T03:46:17.064Z,7.30
2022-12-03T03:48:45.604Z,7.27
2022-12-03T03:51:14.590Z,7.24
2022-12-03T03:53:46.545Z,7.19
2022-12-03T03:56:16.694Z,7.17
2022-12-03T03:58:45.259Z,7.14
2022-12-03T04:01:15.910Z,7.11
2022-12-03T04:03:44.401Z,7.10
2022-12-03T04:06:12.890Z,7.07
2022-12-03T04:08:41.298Z,7.03
2022-12-03T04:11:27.707Z,7.02
2022-12-03T04:13:56.031Z,7.05
2022-12-03T04:16:24.480Z,7.03
2022-12-03T04:18:52.996Z,7.03
2022-12-03T04:21:42.242Z,7.04
2022-12-03T04:24:12.620Z,7.08
2022-12-03T04:26:59.219Z,7.08
2022-12-03T04:29:27.547Z,7.02
2022-12-03T04:32:14.421Z,6.98
2022-12-03T04:35:01.370Z,6.90
2022-12-03T04:37:29.831Z,6.88
2022-12-03T04:39:58.199Z,6.87
2022-12-03T04:42:26.585Z,6.88
2022-12-03T04:44:55.156Z,6.88
2022-12-03T04:47:24.030Z,6.89
2022-12-03T04:49:53.159Z,6.89
2022-12-03T04:52:22.398Z,6.89
2022-12-03T04:54:50.760Z,6.86
2022-12-03T04:57:19.199Z,6.86
2022-12-03T04:59:47.561Z,6.84
2022-12-03T05:02:15.927Z,6.81
2022-12-03T05:04:44.458Z,6.78
2022-12-03T05:07:12.819Z,6.76
2022-12-03T05:09:41.152Z,6.73
2022-12-03T05:12:09.580Z,6.70
2022-12-03T05:14:37.929Z,6.71
2022-12-03T05:17:06.510Z,6.73
2022-12-03T05:19:53.472Z,6.74
2022-12-03T05:22:21.788Z,6.73
2022-12-03T05:24:50.231Z,6.73
2022-12-03T05:27:23.463Z,6.72
2022-12-03T05:29:53.022Z,6.71
2022-12-03T05:32:21.792Z,6.75
2022-12-03T05:34:50.118Z,6.76
2022-12-03T05:37:18.429Z,6.76
2022-12-03T05:39:46.823Z,6.72
2022-12-03T05:42:33.624Z,6.68
2022-12-03T05:45:01.948Z,6.66
2022-12-03T05:47:30.268Z,6.66
2022-12-03T05:49:58.590Z,6.63
2022-12-03T05:52:27.204Z,6.60
2022-12-03T05:54:55.836Z,6.57
2022-12-03T05:57:24.509Z,6.58
2022-12-03T05:59:52.825Z,6.63
2022-12-03T06:02:21.398Z,6.66
2022-12-03T06:04:50.404Z,6.65
2022-12-03T06:07:18.829Z,6.66
2022-12-03T06:09:47.377Z,6.68
2022-12-03T06:12:15.614Z,6.65
2022-12-03T06:14:43.919Z,6.64
2022-12-03T06:17:12.503Z,6.62
2022-12-03T06:19:40.853Z,6.62
2022-12-03T06:22:09.237Z,6.64
2022-12-03T06:24:37.496Z,6.61
2022-12-03T06:27:06.284Z,6.59
2022-12-03T06:29:34.614Z,6.57
2022-12-03T06:32:02.999Z,6.53
2022-12-03T06:34:31.387Z,6.50
2022-12-03T06:36:59.704Z,6.48
2022-12-03T06:39:28.408Z,6.46
2022-12-03T06:41:56.757Z,6.44
2022-12-03T06:44:25.144Z,6.44
2022-12-03T06:46:53.676Z,6.45
2022-12-03T06:49:22.013Z,6.46
2022-12-03T06:51:50.319Z,6.46
2022-12-03T06:54:18.899Z,6.46
2022-12-03T06:56:48.104Z,6.50
2022-12-03T06:59:16.373Z,6.52
2022-12-03T07:01:45.333Z,6.54
2022-12-03T07:04:13.771Z,6.56
2022-12-03T07:06:42.220Z,6.59
2022-12-03T07:09:10.525Z,6.64
2022-12-03T07:11:41.740Z,6.68
2022-12-03T07:14:12.184Z,6.74
2022-12-03T07:16:41.003Z,6.75
2022-12-03T07:19:09.393Z,6.80
2022-12-03T07:21:37.919Z,6.83
2022-12-03T07:24:07.132Z,6.86
2022-12-03T07:26:35.559Z,6.90
2022-12-03T07:29:03.864Z,6.89
2022-12-03T07:31:32.314Z,6.89
2022-12-03T07:34:00.717Z,6.90
2022-12-03T07:36:29.234Z,6.92
2022-12-03T07:38:57.599Z,6.93
2022-12-03T07:41:25.947Z,6.92
2022-12-03T07:43:54.270Z,6.96
2022-12-03T07:46:22.748Z,7.00
2022-12-03T07:48:51.199Z,7.01
2022-12-03T07:51:19.507Z,7.00
2022-12-03T07:53:47.861Z,7.03
2022-12-03T07:56:16.129Z,7.04
2022-12-03T07:58:44.439Z,7.03
2022-12-03T08:01:13.130Z,7.07
2022-12-03T08:03:43.790Z,7.10
2022-12-03T08:06:12.197Z,7.12
2022-12-03T08:08:40.669Z,7.16
2022-12-03T08:11:15.126Z,7.20
2022-12-03T08:13:43.567Z,7.23
2022-12-03T08:16:22.996Z,7.27
2022-12-03T08:18:52.424Z,7.29
2022-12-03T08:21:22.891Z,7.35
2022-12-03T08:23:51.245Z,7.39
2022-12-03T08:26:29.309Z,7.41
2022-12-03T08:28:57.614Z,7.42
2022-12-03T08:31:32.649Z,7.42
2022-12-03T08:34:22.220Z,7.41
2022-12-03T08:37:00.347Z,7.43
2022-12-03T08:39:34.134Z,7.49
2022-12-03T08:42:38.905Z,7.49
2022-12-03T08:45:25.324Z,7.52
2022-12-03T08:47:53.778Z,7.56
2022-12-03T08:50:31.880Z,7.59
2022-12-03T08:53:16.095Z,7.64
2022-12-03T08:55:52.670Z,7.64
2022-12-03T08:58:32.909Z,7.66
2022-12-03T09:01:13.200Z,7.67
2022-12-03T09:03:54.101Z,7.63
2022-12-03T09:06:23.397Z,7.63
2022-12-03T09:08:51.838Z,7.68
2022-12-03T09:11:20.185Z,7.74
2022-12-03T09:13:48.551Z,7.74
2022-12-03T09:16:16.843Z,7.73
2022-12-03T09:18:45.270Z,7.74
2022-12-03T09:21:13.623Z,7.75
2022-12-03T09:23:42.020Z,7.76
2022-12-03T09:26:10.424Z,7.77
2022-12-03T09:28:38.711Z,7.78
2022-12-03T09:31:07.358Z,7.79
2022-12-03T09:33:35.706Z,7.82
2022-12-03T09:36:04.053Z,7.83
2022-12-03T09:38:32.345Z,7.85
2022-12-03T09:41:01.747Z,7.88
2022-12-03T09:44:02.708Z,7.88
2022-12-03T09:46:23.923Z,7.92
2022-12-03T09:48:52.670Z,7.98
2022-12-03T09:51:21.259Z,7.98
2022-12-03T09:53:49.950Z,7.96
2022-12-03T09:56:23.196Z,7.95
2022-12-03T09:58:52.019Z,7.96
2022-12-03T10:01:20.537Z,7.99
2022-12-03T10:03:52.318Z,7.98
2022-12-03T10:06:25.002Z,8.01
2022-12-03T10:08:56.166Z,8.02
2022-12-03T10:11:27.197Z,8.04
2022-12-03T10:13:57.625Z,8.04
2022-12-03T10:16:27.367Z,8.04
2022-12-03T10:18:59.070Z,8.03
2022-12-03T10:21:38.420Z,8.04
2022-12-03T10:24:24.179Z,8.05
2022-12-03T10:26:54.589Z,8.06
2022-12-03T10:29:37.120Z,8.07
2022-12-03T10:32:11.227Z,8.10
2022-12-03T10:34:42.259Z,8.09
2022-12-03T10:37:22.555Z,8.09
2022-12-03T10:40:27.478Z,8.11
2022-12-03T10:43:21.788Z,8.12
2022-12-03T10:45:52.573Z,8.16
2022-12-03T10:48:28.829Z,8.16
2022-12-03T10:51:07.979Z,8.16
2022-12-03T10:53:38.576Z,8.15
2022-12-03T10:56:09.638Z,8.19
2022-12-03T10:58:42.223Z,8.19
2022-12-03T11:01:26.353Z,8.21
2022-12-03T11:04:06.173Z,8.23
2022-12-03T11:06:34.790Z,8.22
2022-12-03T11:09:09.018Z,8.24
2022-12-03T11:11:37.959Z,8.25
2022-12-03T11:14:06.721Z,8.26
2022-12-03T11:16:41.002Z,8.26
2022-12-03T11:19:19.684Z,8.29
2022-12-03T11:22:06.364Z,8.30
2022-12-03T11:24:39.710Z,8.31
2022-12-03T11:27:18.897Z,8.32
2022-12-03T11:29:47.209Z,8.32
2022-12-03T11:32:40.509Z,8.34
2022-12-03T11:35:25.312Z,8.35
2022-12-03T11:37:54.238Z,8.33
2022-12-03T11:40:30.648Z,8.36
2022-12-03T11:43:00.830Z,8.37
2022-12-03T11:45:40.352Z,8.39
2022-12-03T11:48:17.138Z,8.38
2022-12-03T11:50:54.330Z,8.41
2022-12-03T11:53:26.102Z,8.41
2022-12-03T11:56:09.466Z,8.44
2022-12-03T11:58:40.862Z,8.49
2022-12-03T12:01:09.999Z,8.49
2022-12-03T12:03:47.238Z,8.48
2022-12-03T12:06:21.780Z,8.45
2022-12-03T12:08:53.147Z,8.46
2022-12-03T12:11:37.143Z,8.51
2022-12-03T12:14:10.375Z,8.57
2022-12-03T12:16:52.200Z,8.55
2022-12-03T12:19:29.784Z,8.53
2022-12-03T12:22:28.179Z,8.58
2022-12-03T12:25:04.640Z,8.58
2022-12-03T12:27:40.339Z,8.57
2022-12-03T12:30:21.577Z,8.57
2022-12-03T12:33:24.159Z,8.57
2022-12-03T12:35:52.979Z,8.61
2022-12-03T12:38:25.305Z,8.62
2022-12-03T12:40:54.278Z,8.62
2022-12-03T12:43:28.509Z,8.62
2022-12-03T12:46:13.464Z,8.62
2022-12-03T12:48:49.447Z,8.63
2022-12-03T12:51:21.793Z,8.61
2022-12-03T12:53:51.340Z,8.61
2022-12-03T12:56:19.623Z,8.62
2022-12-03T12:58:48.029Z,8.64
2022-12-03T13:01:26.209Z,8.66
2022-12-03T13:03:55.399Z,8.73
2022-12-03T13:06:33.419Z,8.74
2022-12-03T13:09:04.473Z,8.73
2022-12-03T13:11:39.691Z,8.71
2022-12-03T13:14:20.444Z,8.70
2022-12-03T13:16:51.714Z,8.71
2022-12-03T13:19:28.296Z,8.74
2022-12-03T13:21:58.989Z,8.77
2022-12-03T13:24:40.339Z,8.74
2022-12-03T13:27:26.841Z,8.74
2022-12-03T13:30:00.285Z,8.74
2022-12-03T13:32:34.594Z,8.71
2022-12-03T13:35:14.570Z,8.71
2022-12-03T13:37:42.839Z,8.70
2022-12-03T13:40:31.974Z,8.70
2022-12-03T13:43:01.066Z,8.68
2022-12-03T13:45:44.641Z,8.66
2022-12-03T13:48:26.779Z,8.67
2022-12-03T13:50:55.641Z,8.65
2022-12-03T13:53:36.772Z,8.68
2022-12-03T13:56:28.279Z,8.69
2022-12-03T13:58:59.000Z,8.69
2022-12-03T14:01:28.887Z,8.67
2022-12-03T14:03:57.851Z,8.67
2022-12-03T14:06:26.204Z,8.66
2022-12-03T14:08:55.800Z,8.63
2022-12-03T14:11:42.644Z,8.62
2022-12-03T14:14:11.322Z,8.59
2022-12-03T14:16:39.780Z,8.53
2022-12-03T14:19:08.745Z,8.46
2022-12-03T14:21:37.130Z,8.49
2022-12-03T14:24:06.041Z,8.53
2022-12-03T14:26:34.359Z,8.57
2022-12-03T14:29:08.417Z,8.59
2022-12-03T14:31:37.304Z,8.59
2022-12-03T14:34:05.725Z,8.61
2022-12-03T14:36:34.004Z,8.59
2022-12-03T14:39:02.462Z,8.60
2022-12-03T14:41:49.324Z,8.62
2022-12-03T14:44:17.678Z,8.61
2022-12-03T14:46:45.924Z,8.63
2022-12-03T14:49:14.239Z,8.63
2022-12-03T14:51:42.787Z,8.64
2022-12-03T14:54:11.636Z,8.65
2022-12-03T14:56:39.932Z,8.64
2022-12-03T14:59:08.193Z,8.64
2022-12-03T15:01:36.825Z,8.62
2022-12-03T15:04:05.360Z,8.60
2022-12-03T15:06:33.706Z,8.61
2022-12-03T15:09:02.099Z,8.63
2022-12-03T15:11:30.459Z,8.62
2022-12-03T15:13:58.839Z,8.65
2022-12-03T15:16:27.199Z,8.67
2022-12-03T15:18:55.478Z,8.68
2022-12-03T15:21:23.819Z,8.69
2022-12-03T15:23:52.117Z,8.67
2022-12-03T15:26:20.408Z,8.65
2022-12-03T15:28:48.684Z,8.68
2022-12-03T15:31:17.058Z,8.68
2022-12-03T15:33:45.501Z,8.69
2022-12-03T15:36:13.888Z,8.69
2022-12-03T15:38:42.199Z,8.70
2022-12-03T15:41:24.089Z,8.72
2022-12-03T15:43:53.674Z,8.75
2022-12-03T15:46:22.180Z,8.76
2022-12-03T15:48:51.972Z,8.78
2022-12-03T15:51:20.383Z,8.80
2022-12-03T15:53:48.760Z,8.82
2022-12-03T15:56:17.714Z,8.82
2022-12-03T15:58:46.159Z,8.84
2022-12-03T16:01:14.723Z,8.89
2022-12-03T16:03:43.160Z,8.91
2022-12-03T16:06:11.628Z,8.93
2022-12-03T16:08:39.966Z,8.95
2022-12-03T16:11:08.936Z,8.94
2022-12-03T16:13:37.394Z,8.95
2022-12-03T16:16:24.976Z,8.96
2022-12-03T16:18:53.390Z,8.96
2022-12-03T16:21:26.497Z,8.98
2022-12-03T16:23:55.899Z,8.95
2022-12-03T16:26:24.599Z,8.95
2022-12-03T16:28:53.024Z,8.95
2022-12-03T16:31:21.445Z,8.95
2022-12-03T16:33:50.075Z,8.97
2022-12-03T16:36:18.851Z,9.00
2022-12-03T16:38:47.285Z,9.01
2022-12-03T16:41:15.723Z,9.06
2022-12-03T16:43:46.950Z,9.14
2022-12-03T16:46:15.845Z,9.20
2022-12-03T16:48:44.599Z,9.29
2022-12-03T16:51:13.017Z,9.34
2022-12-03T16:53:41.282Z,9.40
2022-12-03T16:56:09.926Z,9.44
2022-12-03T16:58:38.219Z,9.48
2022-12-03T17:01:07.118Z,9.51
2022-12-03T17:03:35.376Z,9.54
2022-12-03T17:06:04.424Z,9.54
2022-12-03T17:08:33.062Z,9.54
2022-12-03T17:11:01.369Z,9.53
2022-12-03T17:13:29.994Z,9.54
2022-12-03T17:15:58.339Z,9.51
2022-12-03T17:18:26.802Z,9.48
2022-12-03T17:20:55.114Z,9.51
2022-12-03T17:23:23.468Z,9.56
2022-12-03T17:25:51.810Z,9.59
2022-12-03T17:28:20.111Z,9.63
2022-12-03T17:30:48.541Z,9.65
2022-12-03T17:33:16.873Z,9.67
2022-12-03T17:35:46.818Z,9.66
2022-12-03T17:38:15.168Z,9.65
2022-12-03T17:40:43.736Z,9.65
2022-12-03T17:43:12.125Z,9.66
2022-12-03T17:45:40.639Z,9.67
2022-12-03T17:48:09.566Z,9.68
2022-12-03T17:50:37.917Z,9.67
2022-12-03T17:53:08.925Z,9.68
2022-12-03T17:55:44.284Z,9.75
2022-12-03T17:58:13.385Z,9.76
2022-12-03T18:00:41.722Z,9.72
2022-12-03T18:03:10.270Z,9.81
2022-12-03T18:05:38.698Z,9.94
2022-12-03T18:08:08.035Z,10.03
2022-12-03T18:10:36.600Z,10.13
2022-12-03T18:13:05.193Z,10.19
2022-12-03T18:15:33.658Z,10.25
2022-12-03T18:18:04.360Z,10.25
2022-12-03T18:20:32.827Z,10.25
2022-12-03T18:23:01.429Z,10.27
2022-12-03T18:25:30.522Z,10.30
2022-12-03T18:27:58.859Z,10.28
2022-12-03T18:30:27.234Z,10.24
2022-12-03T18:32:55.805Z,10.16
2022-12-03T18:35:24.328Z,10.14
2022-12-03T18:37:53.103Z,10.13
2022-12-03T18:40:25.257Z,10.13
2022-12-03T18:42:53.861Z,10.11
2022-12-03T18:45:22.235Z,10.13
2022-12-03T18:47:50.661Z,10.13
2022-12-03T18:50:19.182Z,10.13
2022-12-03T18:52:47.476Z,10.14
2022-12-03T18:55:20.216Z,10.17
2022-12-03T18:57:48.601Z,10.18
2022-12-03T19:00:17.883Z,10.16
2022-12-03T19:03:03.478Z,10.17
2022-12-03T19:05:35.428Z,10.15
2022-12-03T19:08:04.663Z,10.19
2022-12-03T19:10:33.021Z,10.21
2022-12-03T19:13:01.399Z,10.25
2022-12-03T19:15:29.740Z,10.28
2022-12-03T19:17:58.060Z,10.31
2022-12-03T19:20:26.505Z,10.29
2022-12-03T19:22:54.889Z,10.31
2022-12-03T19:25:23.382Z,10.34
2022-12-03T19:27:56.094Z,10.33
2022-12-03T19:30:24.446Z,10.37
2022-12-03T19:32:52.848Z,10.42
2022-12-03T19:35:22.372Z,10.47
2022-12-03T19:37:51.326Z,10.49
2022-12-03T19:40:19.807Z,10.59
2022-12-03T19:42:48.118Z,10.66
2022-12-03T19:45:16.607Z,10.74
2022-12-03T19:47:44.960Z,10.79
2022-12-03T19:50:20.881Z,10.86
2022-12-03T19:52:51.422Z,10.90
2022-12-03T19:55:20.686Z,10.97
2022-12-03T19:57:49.407Z,11.05
2022-12-03T20:00:18.362Z,11.13
2022-12-03T20:02:50.499Z,11.22
2022-12-03T20:05:18.963Z,11.28
2022-12-03T20:07:47.299Z,11.34
2022-12-03T20:10:15.680Z,11.35
2022-12-03T20:12:44.075Z,11.34
2022-12-03T20:15:14.584Z,11.30
2022-12-03T20:17:42.918Z,11.31
2022-12-03T20:20:11.657Z,11.32
2022-12-03T20:22:40.019Z,11.35
2022-12-03T20:25:09.351Z,11.36
2022-12-03T20:27:37.697Z,11.37
2022-12-03T20:30:06.910Z,11.41
2022-12-03T20:32:41.988Z,11.41
2022-12-03T20:35:13.381Z,11.43
2022-12-03T20:37:41.705Z,11.44
2022-12-03T20:40:10.754Z,11.45
2022-12-03T20:42:39.097Z,11.47
2022-12-03T20:45:08.389Z,11.43
2022-12-03T20:47:36.759Z,11.40
2022-12-03T20:50:05.242Z,11.44
2022-12-03T20:52:33.564Z,11.43
2022-12-03T20:55:01.863Z,11.45
2022-12-03T20:57:30.307Z,11.45
2022-12-03T20:59:58.644Z,11.44
2022-12-03T21:02:27.202Z,11.40
2022-12-03T21:04:55.505Z,11.38
2022-12-03T21:07:23.797Z,11.40
2022-12-03T21:09:52.401Z,11.38
2022-12-03T21:12:21.082Z,11.39
2022-12-03T21:14:49.415Z,11.38
2022-12-03T21:17:17.829Z,11.34
2022-12-03T21:19:46.448Z,11.35
2022-12-03T21:22:14.834Z,11.34
2022-12-03T21:24:43.759Z,11.34
2022-12-03T21:27:14.568Z,11.31
2022-12-03T21:29:46.374Z,11.31
2022-12-03T21:32:15.001Z,11.36
2022-12-03T21:34:43.266Z,11.39
2022-12-03T21:37:11.642Z,11.41
2022-12-03T21:39:39.934Z,11.42
2022-12-03T21:42:34.512Z,11.42
2022-12-03T21:44:56.609Z,11.43
2022-12-03T21:47:25.107Z,11.47
2022-12-03T21:49:53.862Z,11.50
2022-12-03T21:52:22.296Z,11.51
2022-12-03T21:54:53.738Z,11.53
2022-12-03T21:57:22.362Z,11.57
2022-12-03T21:59:50.678Z,11.60
2022-12-03T22:02:19.121Z,11.66
2022-12-03T22:04:51.283Z,11.67
2022-12-03T22:07:19.650Z,11.71
2022-12-03T22:09:47.966Z,11.76
2022-12-03T22:12:16.715Z,11.77
2022-12-03T22:14:45.054Z,11.77
2022-12-03T22:17:13.318Z,11.77
2022-12-03T22:19:41.694Z,11.80
2022-12-03T22:22:10.338Z,11.77
2022-12-03T22:24:39.567Z,11.73
2022-12-03T22:27:08.094Z,11.72
2022-12-03T22:29:36.431Z,11.71
2022-12-03T22:32:05.253Z,11.66
2022-12-03T22:34:34.200Z,11.62
2022-12-03T22:37:02.525Z,11.59
2022-12-03T22:39:30.950Z,11.54
2022-12-03T22:41:59.300Z,11.47
2022-12-03T22:44:27.815Z,11.45
2022-12-03T22:46:56.239Z,11.45
2022-12-03T22:49:24.717Z,11.41
2022-12-03T22:51:53.084Z,11.36
2022-12-03T22:54:24.111Z,11.24
2022-12-03T22:56:52.778Z,11.16
2022-12-03T22:59:21.085Z,11.08
2022-12-03T23:01:49.565Z,11.01
2022-12-03T23:04:18.079Z,10.99
2022-12-03T23:06:46.472Z,10.91
2022-12-03T23:09:15.190Z,10.90
2022-12-03T23:11:46.193Z,10.85
2022-12-03T23:14:15.013Z,10.82
2022-12-03T23:16:43.435Z,10.80
2022-12-03T23:19:12.334Z,10.77
2022-12-03T23:21:40.873Z,10.74
2022-12-03T23:24:09.213Z,10.74
2022-12-03T23:26:39.025Z,10.73
2022-12-03T23:29:09.380Z,10.74
2022-12-03T23:31:37.971Z,10.75
2022-12-03T23:34:06.719Z,10.78
2022-12-03T23:36:35.319Z,10.77
2022-12-03T23:39:03.807Z,10.75
2022-12-03T23:41:32.287Z,10.65
2022-12-03T23:44:00.741Z,10.58
2022-12-03T23:46:31.371Z,10.56
2022-12-03T23:49:00.592Z,10.58
2022-12-03T23:51:29.015Z,10.59
2022-12-03T23:53:57.924Z,10.59
2022-12-03T23:56:30.161Z,10.61
2022-12-03T23:58:59.449Z,10.65
